sensor_id;sensor_type;location;lat;lon;timestamp;P1;durP1;ratioP1;P2;durP2;ratioP2
19026;SDS011;9646;52.034;5.554;2022-10-16T00:00:30;4.00;;;2.00;;
19026;SDS011;9646;52.034;5.554;2022-10-16T00:02:57;3.75;;;2.28;;
19026;SDS011;9646;52.034;5.554;2022-10-16T00:05:24;4.50;;;2.03;;
19026;SDS011;9646;52.034;5.554;2022-10-16T00:07:51;3.17;;;2.03;;
19026;SDS011;9646;52.034;5.554;2022-10-16T00:10:20;4.38;;;1.90;;
19026;SDS011;9646;52.034;5.554;2022-10-16T00:12:47;4.35;;;2.08;;
19026;SDS011;9646;52.034;5.554;2022-10-16T00:15:14;4.68;;;1.92;;
19026;SDS011;9646;52.034;5.554;2022-10-16T00:17:41;7.45;;;1.95;;
19026;SDS011;9646;52.034;5.554;2022-10-16T00:20:08;3.78;;;2.05;;
19026;SDS011;9646;52.034;5.554;2022-10-16T00:22:36;3.63;;;2.10;;
19026;SDS011;9646;52.034;5.554;2022-10-16T00:25:03;3.95;;;2.03;;
19026;SDS011;9646;52.034;5.554;2022-10-16T00:27:31;4.30;;;1.88;;
19026;SDS011;9646;52.034;5.554;2022-10-16T00:29:59;5.35;;;1.88;;
19026;SDS011;9646;52.034;5.554;2022-10-16T00:32:26;6.43;;;2.03;;
19026;SDS011;9646;52.034;5.554;2022-10-16T00:34:53;3.00;;;1.52;;
19026;SDS011;9646;52.034;5.554;2022-10-16T00:37:20;5.78;;;1.90;;
19026;SDS011;9646;52.034;5.554;2022-10-16T00:39:47;4.40;;;1.77;;
19026;SDS011;9646;52.034;5.554;2022-10-16T00:42:14;4.88;;;1.92;;
19026;SDS011;9646;52.034;5.554;2022-10-16T00:44:45;5.22;;;2.10;;
19026;SDS011;9646;52.034;5.554;2022-10-16T00:47:13;4.75;;;1.83;;
19026;SDS011;9646;52.034;5.554;2022-10-16T00:49:41;4.22;;;1.83;;
19026;SDS011;9646;52.034;5.554;2022-10-16T00:52:08;4.78;;;2.15;;
19026;SDS011;9646;52.034;5.554;2022-10-16T00:54:36;4.03;;;1.80;;
19026;SDS011;9646;52.034;5.554;2022-10-16T00:57:04;7.90;;;1.95;;
19026;SDS011;9646;52.034;5.554;2022-10-16T00:59:32;4.65;;;1.92;;
19026;SDS011;9646;52.034;5.554;2022-10-16T01:02:00;3.80;;;1.80;;
19026;SDS011;9646;52.034;5.554;2022-10-16T01:04:28;5.15;;;1.95;;
19026;SDS011;9646;52.034;5.554;2022-10-16T01:07:00;6.47;;;2.03;;
19026;SDS011;9646;52.034;5.554;2022-10-16T01:09:30;3.83;;;1.83;;
19026;SDS011;9646;52.034;5.554;2022-10-16T01:12:01;3.88;;;2.05;;
19026;SDS011;9646;52.034;5.554;2022-10-16T01:14:35;3.22;;;1.92;;
19026;SDS011;9646;52.034;5.554;2022-10-16T01:17:06;4.95;;;2.20;;
19026;SDS011;9646;52.034;5.554;2022-10-16T01:19:44;3.65;;;1.60;;
19026;SDS011;9646;52.034;5.554;2022-10-16T01:22:15;4.68;;;2.42;;
19026;SDS011;9646;52.034;5.554;2022-10-16T01:24:44;2.67;;;1.58;;
19026;SDS011;9646;52.034;5.554;2022-10-16T01:27:14;3.10;;;1.70;;
19026;SDS011;9646;52.034;5.554;2022-10-16T01:29:44;5.22;;;1.80;;
19026;SDS011;9646;52.034;5.554;2022-10-16T01:32:16;6.15;;;2.13;;
19026;SDS011;9646;52.034;5.554;2022-10-16T01:34:47;3.10;;;2.05;;
19026;SDS011;9646;52.034;5.554;2022-10-16T01:37:15;3.05;;;2.00;;
19026;SDS011;9646;52.034;5.554;2022-10-16T01:39:44;3.45;;;2.03;;
19026;SDS011;9646;52.034;5.554;2022-10-16T01:42:14;4.32;;;1.88;;
19026;SDS011;9646;52.034;5.554;2022-10-16T01:44:42;5.63;;;2.10;;
19026;SDS011;9646;52.034;5.554;2022-10-16T01:47:10;5.18;;;2.00;;
19026;SDS011;9646;52.034;5.554;2022-10-16T01:49:37;5.03;;;2.20;;
19026;SDS011;9646;52.034;5.554;2022-10-16T01:52:06;3.47;;;1.98;;
19026;SDS011;9646;52.034;5.554;2022-10-16T01:54:35;3.65;;;1.95;;
19026;SDS011;9646;52.034;5.554;2022-10-16T01:57:03;4.75;;;1.95;;
19026;SDS011;9646;52.034;5.554;2022-10-16T01:59:32;3.88;;;2.20;;
19026;SDS011;9646;52.034;5.554;2022-10-16T02:02:04;2.95;;;2.00;;
19026;SDS011;9646;52.034;5.554;2022-10-16T02:04:34;3.45;;;1.88;;
19026;SDS011;9646;52.034;5.554;2022-10-16T02:07:03;3.53;;;1.83;;
19026;SDS011;9646;52.034;5.554;2022-10-16T02:09:30;4.35;;;2.20;;
19026;SDS011;9646;52.034;5.554;2022-10-16T02:11:57;4.65;;;2.17;;
19026;SDS011;9646;52.034;5.554;2022-10-16T02:14:27;5.55;;;2.30;;
19026;SDS011;9646;52.034;5.554;2022-10-16T02:16:56;4.22;;;1.55;;
19026;SDS011;9646;52.034;5.554;2022-10-16T02:19:23;3.25;;;1.67;;
19026;SDS011;9646;52.034;5.554;2022-10-16T02:21:51;3.08;;;2.13;;
19026;SDS011;9646;52.034;5.554;2022-10-16T02:24:19;2.85;;;1.75;;
19026;SDS011;9646;52.034;5.554;2022-10-16T02:26:51;3.35;;;1.90;;
19026;SDS011;9646;52.034;5.554;2022-10-16T02:29:20;2.97;;;1.85;;
19026;SDS011;9646;52.034;5.554;2022-10-16T02:31:49;3.97;;;1.70;;
19026;SDS011;9646;52.034;5.554;2022-10-16T02:34:18;3.90;;;2.00;;
19026;SDS011;9646;52.034;5.554;2022-10-16T02:36:48;3.78;;;2.00;;
19026;SDS011;9646;52.034;5.554;2022-10-16T02:39:16;3.05;;;1.60;;
19026;SDS011;9646;52.034;5.554;2022-10-16T02:41:43;4.45;;;2.30;;
19026;SDS011;9646;52.034;5.554;2022-10-16T02:44:10;2.40;;;1.70;;
19026;SDS011;9646;52.034;5.554;2022-10-16T02:46:37;7.07;;;2.25;;
19026;SDS011;9646;52.034;5.554;2022-10-16T02:49:04;3.38;;;1.95;;
19026;SDS011;9646;52.034;5.554;2022-10-16T02:51:33;3.78;;;1.80;;
19026;SDS011;9646;52.034;5.554;2022-10-16T02:54:01;3.90;;;1.92;;
19026;SDS011;9646;52.034;5.554;2022-10-16T02:56:28;2.50;;;1.50;;
19026;SDS011;9646;52.034;5.554;2022-10-16T02:58:55;4.32;;;1.55;;
19026;SDS011;9646;52.034;5.554;2022-10-16T03:01:23;3.22;;;1.85;;
19026;SDS011;9646;52.034;5.554;2022-10-16T03:03:50;3.63;;;2.00;;
19026;SDS011;9646;52.034;5.554;2022-10-16T03:06:17;3.05;;;2.00;;
19026;SDS011;9646;52.034;5.554;2022-10-16T03:08:45;3.20;;;1.85;;
19026;SDS011;9646;52.034;5.554;2022-10-16T03:11:12;4.50;;;2.33;;
19026;SDS011;9646;52.034;5.554;2022-10-16T03:13:39;4.85;;;2.13;;
19026;SDS011;9646;52.034;5.554;2022-10-16T03:16:06;3.15;;;2.20;;
19026;SDS011;9646;52.034;5.554;2022-10-16T03:18:33;3.33;;;1.90;;
19026;SDS011;9646;52.034;5.554;2022-10-16T03:21:00;2.13;;;1.50;;
19026;SDS011;9646;52.034;5.554;2022-10-16T03:23:28;1.80;;;1.50;;
19026;SDS011;9646;52.034;5.554;2022-10-16T03:25:56;4.40;;;1.70;;
19026;SDS011;9646;52.034;5.554;2022-10-16T03:28:24;3.60;;;1.85;;
19026;SDS011;9646;52.034;5.554;2022-10-16T03:30:51;2.92;;;1.80;;
19026;SDS011;9646;52.034;5.554;2022-10-16T03:33:18;4.70;;;1.50;;
19026;SDS011;9646;52.034;5.554;2022-10-16T03:35:50;2.20;;;1.80;;
19026;SDS011;9646;52.034;5.554;2022-10-16T03:38:17;2.00;;;1.50;;
19026;SDS011;9646;52.034;5.554;2022-10-16T03:40:44;4.85;;;1.70;;
19026;SDS011;9646;52.034;5.554;2022-10-16T03:43:13;4.55;;;1.80;;
19026;SDS011;9646;52.034;5.554;2022-10-16T03:45:40;2.88;;;1.70;;
19026;SDS011;9646;52.034;5.554;2022-10-16T03:48:07;3.30;;;1.40;;
19026;SDS011;9646;52.034;5.554;2022-10-16T03:50:34;3.65;;;1.38;;
19026;SDS011;9646;52.034;5.554;2022-10-16T03:53:01;2.58;;;1.83;;
19026;SDS011;9646;52.034;5.554;2022-10-16T03:55:28;3.75;;;1.42;;
19026;SDS011;9646;52.034;5.554;2022-10-16T03:57:55;2.60;;;1.80;;
19026;SDS011;9646;52.034;5.554;2022-10-16T04:00:23;3.33;;;1.40;;
19026;SDS011;9646;52.034;5.554;2022-10-16T04:02:51;2.08;;;1.40;;
19026;SDS011;9646;52.034;5.554;2022-10-16T04:05:18;2.60;;;1.50;;
19026;SDS011;9646;52.034;5.554;2022-10-16T04:07:45;2.85;;;1.67;;
19026;SDS011;9646;52.034;5.554;2022-10-16T04:10:12;3.45;;;1.65;;
19026;SDS011;9646;52.034;5.554;2022-10-16T04:12:39;3.13;;;1.60;;
19026;SDS011;9646;52.034;5.554;2022-10-16T04:15:06;3.53;;;1.48;;
19026;SDS011;9646;52.034;5.554;2022-10-16T04:17:35;3.08;;;1.60;;
19026;SDS011;9646;52.034;5.554;2022-10-16T04:20:02;3.95;;;1.88;;
19026;SDS011;9646;52.034;5.554;2022-10-16T04:22:29;3.00;;;1.80;;
19026;SDS011;9646;52.034;5.554;2022-10-16T04:24:56;2.60;;;1.90;;
19026;SDS011;9646;52.034;5.554;2022-10-16T04:27:23;2.33;;;1.55;;
19026;SDS011;9646;52.034;5.554;2022-10-16T04:29:50;2.40;;;1.65;;
19026;SDS011;9646;52.034;5.554;2022-10-16T04:32:17;2.33;;;1.58;;
19026;SDS011;9646;52.034;5.554;2022-10-16T04:34:46;3.05;;;1.50;;
19026;SDS011;9646;52.034;5.554;2022-10-16T04:37:13;5.15;;;1.88;;
19026;SDS011;9646;52.034;5.554;2022-10-16T04:39:40;1.90;;;1.20;;
19026;SDS011;9646;52.034;5.554;2022-10-16T04:42:07;2.45;;;1.67;;
19026;SDS011;9646;52.034;5.554;2022-10-16T04:44:34;3.03;;;1.60;;
19026;SDS011;9646;52.034;5.554;2022-10-16T04:47:01;2.45;;;1.80;;
19026;SDS011;9646;52.034;5.554;2022-10-16T04:49:29;2.40;;;1.50;;
19026;SDS011;9646;52.034;5.554;2022-10-16T04:51:58;3.40;;;1.42;;
19026;SDS011;9646;52.034;5.554;2022-10-16T04:54:25;2.53;;;1.60;;
19026;SDS011;9646;52.034;5.554;2022-10-16T04:56:52;2.35;;;1.30;;
19026;SDS011;9646;52.034;5.554;2022-10-16T04:59:19;4.07;;;1.58;;
19026;SDS011;9646;52.034;5.554;2022-10-16T05:01:47;4.15;;;1.58;;
19026;SDS011;9646;52.034;5.554;2022-10-16T05:04:14;3.42;;;1.27;;
19026;SDS011;9646;52.034;5.554;2022-10-16T05:06:41;6.15;;;1.48;;
19026;SDS011;9646;52.034;5.554;2022-10-16T05:09:10;1.95;;;1.25;;
19026;SDS011;9646;52.034;5.554;2022-10-16T05:11:37;3.60;;;1.70;;
19026;SDS011;9646;52.034;5.554;2022-10-16T05:14:04;3.15;;;1.40;;
19026;SDS011;9646;52.034;5.554;2022-10-16T05:16:31;2.10;;;1.30;;
19026;SDS011;9646;52.034;5.554;2022-10-16T05:18:58;5.25;;;1.73;;
19026;SDS011;9646;52.034;5.554;2022-10-16T05:21:25;2.17;;;1.23;;
19026;SDS011;9646;52.034;5.554;2022-10-16T05:23:52;4.35;;;1.52;;
19026;SDS011;9646;52.034;5.554;2022-10-16T05:26:21;4.05;;;1.73;;
19026;SDS011;9646;52.034;5.554;2022-10-16T05:28:48;2.83;;;1.73;;
19026;SDS011;9646;52.034;5.554;2022-10-16T05:31:16;3.38;;;1.50;;
19026;SDS011;9646;52.034;5.554;2022-10-16T05:33:43;3.47;;;1.60;;
19026;SDS011;9646;52.034;5.554;2022-10-16T05:36:10;3.10;;;1.70;;
19026;SDS011;9646;52.034;5.554;2022-10-16T05:38:38;2.80;;;1.50;;
19026;SDS011;9646;52.034;5.554;2022-10-16T05:41:05;7.68;;;1.67;;
19026;SDS011;9646;52.034;5.554;2022-10-16T05:43:33;4.15;;;1.60;;
19026;SDS011;9646;52.034;5.554;2022-10-16T05:46:01;5.80;;;2.20;;
19026;SDS011;9646;52.034;5.554;2022-10-16T05:48:29;2.92;;;1.45;;
19026;SDS011;9646;52.034;5.554;2022-10-16T05:50:56;3.22;;;1.60;;
19026;SDS011;9646;52.034;5.554;2022-10-16T05:53:24;2.97;;;2.13;;
19026;SDS011;9646;52.034;5.554;2022-10-16T05:55:51;1.63;;;1.42;;
19026;SDS011;9646;52.034;5.554;2022-10-16T05:58:18;5.00;;;1.92;;
19026;SDS011;9646;52.034;5.554;2022-10-16T06:00:53;2.75;;;1.60;;
19026;SDS011;9646;52.034;5.554;2022-10-16T06:03:20;2.50;;;1.40;;
19026;SDS011;9646;52.034;5.554;2022-10-16T06:05:48;6.80;;;2.30;;
19026;SDS011;9646;52.034;5.554;2022-10-16T06:08:15;3.10;;;1.90;;
19026;SDS011;9646;52.034;5.554;2022-10-16T06:10:42;3.58;;;1.90;;
19026;SDS011;9646;52.034;5.554;2022-10-16T06:13:09;2.88;;;1.77;;
19026;SDS011;9646;52.034;5.554;2022-10-16T06:15:37;3.92;;;2.45;;
19026;SDS011;9646;52.034;5.554;2022-10-16T06:18:08;6.25;;;2.03;;
19026;SDS011;9646;52.034;5.554;2022-10-16T06:20:35;3.13;;;1.80;;
19026;SDS011;9646;52.034;5.554;2022-10-16T06:23:02;6.15;;;2.10;;
19026;SDS011;9646;52.034;5.554;2022-10-16T06:25:29;3.25;;;1.67;;
19026;SDS011;9646;52.034;5.554;2022-10-16T06:27:56;7.57;;;2.03;;
19026;SDS011;9646;52.034;5.554;2022-10-16T06:30:23;3.13;;;2.00;;
19026;SDS011;9646;52.034;5.554;2022-10-16T06:32:51;4.07;;;1.92;;
19026;SDS011;9646;52.034;5.554;2022-10-16T06:35:19;3.47;;;1.75;;
19026;SDS011;9646;52.034;5.554;2022-10-16T06:37:46;4.90;;;1.80;;
19026;SDS011;9646;52.034;5.554;2022-10-16T06:40:14;9.20;;;1.83;;
19026;SDS011;9646;52.034;5.554;2022-10-16T06:42:41;2.80;;;1.67;;
19026;SDS011;9646;52.034;5.554;2022-10-16T06:45:08;3.72;;;2.13;;
19026;SDS011;9646;52.034;5.554;2022-10-16T06:47:35;4.13;;;2.17;;
19026;SDS011;9646;52.034;5.554;2022-10-16T06:50:02;5.55;;;2.17;;
19026;SDS011;9646;52.034;5.554;2022-10-16T06:52:32;2.78;;;1.67;;
19026;SDS011;9646;52.034;5.554;2022-10-16T06:54:59;5.05;;;1.88;;
19026;SDS011;9646;52.034;5.554;2022-10-16T06:57:27;4.30;;;1.85;;
19026;SDS011;9646;52.034;5.554;2022-10-16T06:59:54;9.77;;;2.83;;
19026;SDS011;9646;52.034;5.554;2022-10-16T07:02:21;4.63;;;2.00;;
19026;SDS011;9646;52.034;5.554;2022-10-16T07:04:48;5.72;;;2.20;;
19026;SDS011;9646;52.034;5.554;2022-10-16T07:07:15;7.40;;;2.42;;
19026;SDS011;9646;52.034;5.554;2022-10-16T07:09:44;3.47;;;2.28;;
19026;SDS011;9646;52.034;5.554;2022-10-16T07:12:11;3.10;;;1.70;;
19026;SDS011;9646;52.034;5.554;2022-10-16T07:14:38;5.90;;;2.03;;
19026;SDS011;9646;52.034;5.554;2022-10-16T07:17:05;3.38;;;2.15;;
19026;SDS011;9646;52.034;5.554;2022-10-16T07:19:32;5.43;;;2.20;;
19026;SDS011;9646;52.034;5.554;2022-10-16T07:21:59;4.35;;;2.08;;
19026;SDS011;9646;52.034;5.554;2022-10-16T07:24:26;4.88;;;1.70;;
19026;SDS011;9646;52.034;5.554;2022-10-16T07:26:54;4.75;;;1.80;;
19026;SDS011;9646;52.034;5.554;2022-10-16T07:29:22;3.05;;;1.92;;
19026;SDS011;9646;52.034;5.554;2022-10-16T07:31:49;5.55;;;1.92;;
19026;SDS011;9646;52.034;5.554;2022-10-16T07:34:17;6.78;;;2.10;;
19026;SDS011;9646;52.034;5.554;2022-10-16T07:36:46;6.32;;;2.20;;
19026;SDS011;9646;52.034;5.554;2022-10-16T07:39:14;2.78;;;1.80;;
19026;SDS011;9646;52.034;5.554;2022-10-16T07:41:41;4.00;;;1.90;;
19026;SDS011;9646;52.034;5.554;2022-10-16T07:44:09;2.90;;;1.75;;
19026;SDS011;9646;52.034;5.554;2022-10-16T07:46:36;3.50;;;1.50;;
19026;SDS011;9646;52.034;5.554;2022-10-16T07:49:03;6.35;;;2.20;;
19026;SDS011;9646;52.034;5.554;2022-10-16T07:51:30;4.35;;;1.70;;
19026;SDS011;9646;52.034;5.554;2022-10-16T07:53:57;3.42;;;1.83;;
19026;SDS011;9646;52.034;5.554;2022-10-16T07:56:25;3.72;;;1.85;;
19026;SDS011;9646;52.034;5.554;2022-10-16T07:58:52;5.47;;;1.95;;
19026;SDS011;9646;52.034;5.554;2022-10-16T08:01:20;6.88;;;2.10;;
19026;SDS011;9646;52.034;5.554;2022-10-16T08:03:48;4.47;;;2.05;;
19026;SDS011;9646;52.034;5.554;2022-10-16T08:06:16;4.88;;;1.98;;
19026;SDS011;9646;52.034;5.554;2022-10-16T08:08:43;4.68;;;1.95;;
19026;SDS011;9646;52.034;5.554;2022-10-16T08:11:10;5.68;;;2.20;;
19026;SDS011;9646;52.034;5.554;2022-10-16T08:13:39;4.55;;;2.00;;
19026;SDS011;9646;52.034;5.554;2022-10-16T08:16:06;4.13;;;1.98;;
19026;SDS011;9646;52.034;5.554;2022-10-16T08:18:36;7.95;;;2.05;;
19026;SDS011;9646;52.034;5.554;2022-10-16T08:21:04;7.22;;;2.33;;
19026;SDS011;9646;52.034;5.554;2022-10-16T08:23:31;6.28;;;2.50;;
19026;SDS011;9646;52.034;5.554;2022-10-16T08:26:02;4.43;;;1.73;;
19026;SDS011;9646;52.034;5.554;2022-10-16T08:28:29;3.30;;;2.20;;
19026;SDS011;9646;52.034;5.554;2022-10-16T08:30:56;5.68;;;2.60;;
19026;SDS011;9646;52.034;5.554;2022-10-16T08:33:30;5.78;;;1.98;;
19026;SDS011;9646;52.034;5.554;2022-10-16T08:36:01;5.60;;;2.13;;
19026;SDS011;9646;52.034;5.554;2022-10-16T08:38:28;4.20;;;2.00;;
19026;SDS011;9646;52.034;5.554;2022-10-16T08:40:57;6.38;;;2.40;;
19026;SDS011;9646;52.034;5.554;2022-10-16T08:43:30;4.93;;;1.85;;
19026;SDS011;9646;52.034;5.554;2022-10-16T08:46:13;6.40;;;2.08;;
19026;SDS011;9646;52.034;5.554;2022-10-16T08:48:43;2.95;;;1.75;;
19026;SDS011;9646;52.034;5.554;2022-10-16T08:51:14;5.32;;;2.00;;
19026;SDS011;9646;52.034;5.554;2022-10-16T08:53:46;6.40;;;2.22;;
19026;SDS011;9646;52.034;5.554;2022-10-16T08:56:15;5.25;;;2.20;;
19026;SDS011;9646;52.034;5.554;2022-10-16T08:58:44;5.07;;;1.98;;
19026;SDS011;9646;52.034;5.554;2022-10-16T09:01:12;8.25;;;1.88;;
19026;SDS011;9646;52.034;5.554;2022-10-16T09:03:43;5.45;;;2.00;;
19026;SDS011;9646;52.034;5.554;2022-10-16T09:09:08;5.63;;;2.20;;
19026;SDS011;9646;52.034;5.554;2022-10-16T09:11:44;5.43;;;1.80;;
19026;SDS011;9646;52.034;5.554;2022-10-16T09:14:20;4.45;;;2.10;;
19026;SDS011;9646;52.034;5.554;2022-10-16T09:16:51;11.02;;;2.17;;
19026;SDS011;9646;52.034;5.554;2022-10-16T09:19:20;5.88;;;2.03;;
19026;SDS011;9646;52.034;5.554;2022-10-16T09:21:48;9.00;;;2.22;;
19026;SDS011;9646;52.034;5.554;2022-10-16T09:24:20;5.65;;;1.85;;
19026;SDS011;9646;52.034;5.554;2022-10-16T09:26:49;11.30;;;2.15;;
19026;SDS011;9646;52.034;5.554;2022-10-16T09:29:17;7.25;;;1.50;;
19026;SDS011;9646;52.034;5.554;2022-10-16T09:31:45;9.07;;;1.98;;
19026;SDS011;9646;52.034;5.554;2022-10-16T09:34:15;6.25;;;1.88;;
19026;SDS011;9646;52.034;5.554;2022-10-16T09:36:44;7.20;;;2.28;;
19026;SDS011;9646;52.034;5.554;2022-10-16T09:39:12;9.63;;;1.90;;
19026;SDS011;9646;52.034;5.554;2022-10-16T09:41:41;9.85;;;2.53;;
19026;SDS011;9646;52.034;5.554;2022-10-16T09:44:16;8.82;;;2.28;;
19026;SDS011;9646;52.034;5.554;2022-10-16T09:46:44;5.80;;;2.50;;
19026;SDS011;9646;52.034;5.554;2022-10-16T09:49:21;8.48;;;2.55;;
19026;SDS011;9646;52.034;5.554;2022-10-16T09:51:49;8.18;;;2.00;;
19026;SDS011;9646;52.034;5.554;2022-10-16T09:54:17;10.50;;;2.17;;
19026;SDS011;9646;52.034;5.554;2022-10-16T09:56:46;11.90;;;2.60;;
19026;SDS011;9646;52.034;5.554;2022-10-16T09:59:17;12.18;;;2.30;;
19026;SDS011;9646;52.034;5.554;2022-10-16T10:01:45;9.32;;;2.47;;
19026;SDS011;9646;52.034;5.554;2022-10-16T10:04:13;10.55;;;2.47;;
19026;SDS011;9646;52.034;5.554;2022-10-16T10:06:41;7.50;;;2.15;;
19026;SDS011;9646;52.034;5.554;2022-10-16T10:09:17;7.47;;;2.20;;
19026;SDS011;9646;52.034;5.554;2022-10-16T10:11:48;8.95;;;2.22;;
19026;SDS011;9646;52.034;5.554;2022-10-16T10:14:26;8.23;;;2.55;;
19026;SDS011;9646;52.034;5.554;2022-10-16T10:17:02;12.77;;;2.92;;
19026;SDS011;9646;52.034;5.554;2022-10-16T10:19:29;10.15;;;2.20;;
19026;SDS011;9646;52.034;5.554;2022-10-16T10:21:57;10.23;;;2.63;;
19026;SDS011;9646;52.034;5.554;2022-10-16T10:24:24;10.02;;;2.22;;
19026;SDS011;9646;52.034;5.554;2022-10-16T10:26:54;9.15;;;2.47;;
19026;SDS011;9646;52.034;5.554;2022-10-16T10:29:28;9.70;;;2.38;;
19026;SDS011;9646;52.034;5.554;2022-10-16T10:32:00;9.10;;;2.30;;
19026;SDS011;9646;52.034;5.554;2022-10-16T10:34:35;14.02;;;3.05;;
19026;SDS011;9646;52.034;5.554;2022-10-16T10:37:08;6.85;;;2.45;;
19026;SDS011;9646;52.034;5.554;2022-10-16T10:39:38;10.68;;;2.75;;
19026;SDS011;9646;52.034;5.554;2022-10-16T10:42:14;11.10;;;2.50;;
19026;SDS011;9646;52.034;5.554;2022-10-16T10:44:51;6.22;;;2.10;;
19026;SDS011;9646;52.034;5.554;2022-10-16T10:47:23;8.18;;;2.00;;
19026;SDS011;9646;52.034;5.554;2022-10-16T10:49:55;8.63;;;2.35;;
19026;SDS011;9646;52.034;5.554;2022-10-16T10:52:33;10.48;;;2.47;;
19026;SDS011;9646;52.034;5.554;2022-10-16T10:55:02;11.82;;;2.47;;
19026;SDS011;9646;52.034;5.554;2022-10-16T10:57:35;10.65;;;2.05;;
19026;SDS011;9646;52.034;5.554;2022-10-16T11:00:12;8.73;;;2.55;;
19026;SDS011;9646;52.034;5.554;2022-10-16T11:02:45;11.75;;;2.75;;
19026;SDS011;9646;52.034;5.554;2022-10-16T11:07:59;9.05;;;2.22;;
19026;SDS011;9646;52.034;5.554;2022-10-16T11:10:27;12.38;;;2.83;;
19026;SDS011;9646;52.034;5.554;2022-10-16T11:12:58;11.30;;;2.30;;
19026;SDS011;9646;52.034;5.554;2022-10-16T11:15:27;8.35;;;2.35;;
19026;SDS011;9646;52.034;5.554;2022-10-16T11:17:57;12.27;;;2.40;;
19026;SDS011;9646;52.034;5.554;2022-10-16T11:20:24;11.95;;;2.30;;
19026;SDS011;9646;52.034;5.554;2022-10-16T11:22:53;7.10;;;2.00;;
19026;SDS011;9646;52.034;5.554;2022-10-16T11:25:21;10.52;;;2.42;;
19026;SDS011;9646;52.034;5.554;2022-10-16T11:27:50;11.73;;;2.38;;
19026;SDS011;9646;52.034;5.554;2022-10-16T11:30:20;7.45;;;1.98;;
19026;SDS011;9646;52.034;5.554;2022-10-16T11:32:54;9.45;;;2.30;;
19026;SDS011;9646;52.034;5.554;2022-10-16T11:35:23;9.82;;;2.20;;
19026;SDS011;9646;52.034;5.554;2022-10-16T11:37:52;10.48;;;2.30;;
19026;SDS011;9646;52.034;5.554;2022-10-16T11:40:22;8.38;;;2.00;;
19026;SDS011;9646;52.034;5.554;2022-10-16T11:42:51;14.85;;;2.72;;
19026;SDS011;9646;52.034;5.554;2022-10-16T11:45:26;11.80;;;2.42;;
19026;SDS011;9646;52.034;5.554;2022-10-16T11:47:54;9.68;;;2.35;;
19026;SDS011;9646;52.034;5.554;2022-10-16T11:50:25;7.45;;;1.88;;
19026;SDS011;9646;52.034;5.554;2022-10-16T11:52:54;7.68;;;2.03;;
19026;SDS011;9646;52.034;5.554;2022-10-16T11:55:23;11.52;;;2.50;;
19026;SDS011;9646;52.034;5.554;2022-10-16T11:57:51;10.23;;;2.50;;
19026;SDS011;9646;52.034;5.554;2022-10-16T12:00:20;5.95;;;1.83;;
19026;SDS011;9646;52.034;5.554;2022-10-16T12:02:52;11.30;;;2.30;;
19026;SDS011;9646;52.034;5.554;2022-10-16T12:05:23;15.18;;;2.50;;
19026;SDS011;9646;52.034;5.554;2022-10-16T12:07:54;8.75;;;1.90;;
19026;SDS011;9646;52.034;5.554;2022-10-16T12:10:24;9.25;;;2.10;;
19026;SDS011;9646;52.034;5.554;2022-10-16T12:12:52;8.85;;;2.10;;
19026;SDS011;9646;52.034;5.554;2022-10-16T12:15:21;7.82;;;2.08;;
19026;SDS011;9646;52.034;5.554;2022-10-16T12:17:48;11.52;;;2.35;;
19026;SDS011;9646;52.034;5.554;2022-10-16T12:20:21;9.82;;;1.98;;
19026;SDS011;9646;52.034;5.554;2022-10-16T12:22:51;9.57;;;2.25;;
19026;SDS011;9646;52.034;5.554;2022-10-16T12:25:20;10.23;;;2.45;;
19026;SDS011;9646;52.034;5.554;2022-10-16T12:27:53;12.15;;;2.10;;
19026;SDS011;9646;52.034;5.554;2022-10-16T12:30:21;6.00;;;1.88;;
19026;SDS011;9646;52.034;5.554;2022-10-16T12:32:53;9.68;;;1.90;;
19026;SDS011;9646;52.034;5.554;2022-10-16T12:35:23;10.48;;;2.92;;
19026;SDS011;9646;52.034;5.554;2022-10-16T12:37:50;15.10;;;2.90;;
19026;SDS011;9646;52.034;5.554;2022-10-16T12:40:24;12.23;;;3.17;;
19026;SDS011;9646;52.034;5.554;2022-10-16T12:42:53;9.30;;;2.15;;
19026;SDS011;9646;52.034;5.554;2022-10-16T12:45:25;8.63;;;2.15;;
19026;SDS011;9646;52.034;5.554;2022-10-16T12:47:53;7.28;;;1.83;;
19026;SDS011;9646;52.034;5.554;2022-10-16T12:50:29;9.90;;;2.28;;
19026;SDS011;9646;52.034;5.554;2022-10-16T12:52:57;9.20;;;2.33;;
19026;SDS011;9646;52.034;5.554;2022-10-16T12:55:24;8.05;;;2.38;;
19026;SDS011;9646;52.034;5.554;2022-10-16T12:57:59;8.43;;;2.08;;
19026;SDS011;9646;52.034;5.554;2022-10-16T13:00:29;6.55;;;2.08;;
19026;SDS011;9646;52.034;5.554;2022-10-16T13:03:04;13.63;;;2.22;;
19026;SDS011;9646;52.034;5.554;2022-10-16T13:05:43;7.53;;;2.10;;
19026;SDS011;9646;52.034;5.554;2022-10-16T13:08:17;9.20;;;2.10;;
19026;SDS011;9646;52.034;5.554;2022-10-16T13:10:52;9.45;;;1.95;;
19026;SDS011;9646;52.034;5.554;2022-10-16T13:13:31;12.35;;;1.98;;
19026;SDS011;9646;52.034;5.554;2022-10-16T13:16:05;8.60;;;1.95;;
19026;SDS011;9646;52.034;5.554;2022-10-16T13:18:38;6.88;;;1.63;;
19026;SDS011;9646;52.034;5.554;2022-10-16T13:21:14;10.70;;;2.47;;
19026;SDS011;9646;52.034;5.554;2022-10-16T13:23:48;8.93;;;1.60;;
19026;SDS011;9646;52.034;5.554;2022-10-16T13:26:19;9.60;;;1.90;;
19026;SDS011;9646;52.034;5.554;2022-10-16T13:28:48;9.05;;;2.10;;
19026;SDS011;9646;52.034;5.554;2022-10-16T13:31:17;9.30;;;1.85;;
19026;SDS011;9646;52.034;5.554;2022-10-16T13:33:46;7.43;;;1.98;;
19026;SDS011;9646;52.034;5.554;2022-10-16T13:36:20;12.65;;;3.70;;
19026;SDS011;9646;52.034;5.554;2022-10-16T13:38:48;9.82;;;3.00;;
19026;SDS011;9646;52.034;5.554;2022-10-16T13:41:16;13.32;;;2.88;;
19026;SDS011;9646;52.034;5.554;2022-10-16T13:43:44;7.30;;;2.03;;
19026;SDS011;9646;52.034;5.554;2022-10-16T13:46:12;8.35;;;2.40;;
19026;SDS011;9646;52.034;5.554;2022-10-16T13:48:39;13.10;;;3.40;;
19026;SDS011;9646;52.034;5.554;2022-10-16T13:51:11;11.05;;;2.67;;
19026;SDS011;9646;52.034;5.554;2022-10-16T13:53:40;9.25;;;2.13;;
19026;SDS011;9646;52.034;5.554;2022-10-16T13:56:10;6.90;;;1.70;;
19026;SDS011;9646;52.034;5.554;2022-10-16T13:58:37;11.00;;;2.45;;
19026;SDS011;9646;52.034;5.554;2022-10-16T14:01:05;9.63;;;1.88;;
19026;SDS011;9646;52.034;5.554;2022-10-16T14:03:32;14.02;;;5.30;;
19026;SDS011;9646;52.034;5.554;2022-10-16T14:06:02;18.13;;;3.45;;
19026;SDS011;9646;52.034;5.554;2022-10-16T14:08:29;10.73;;;1.70;;
19026;SDS011;9646;52.034;5.554;2022-10-16T14:10:59;9.52;;;1.50;;
19026;SDS011;9646;52.034;5.554;2022-10-16T14:13:29;10.05;;;1.95;;
19026;SDS011;9646;52.034;5.554;2022-10-16T14:16:05;8.02;;;2.00;;
19026;SDS011;9646;52.034;5.554;2022-10-16T14:18:32;9.27;;;2.42;;
19026;SDS011;9646;52.034;5.554;2022-10-16T14:21:04;9.98;;;2.13;;
19026;SDS011;9646;52.034;5.554;2022-10-16T14:23:32;9.75;;;2.45;;
19026;SDS011;9646;52.034;5.554;2022-10-16T14:26:13;9.30;;;2.42;;
19026;SDS011;9646;52.034;5.554;2022-10-16T14:28:40;8.35;;;2.60;;
19026;SDS011;9646;52.034;5.554;2022-10-16T14:31:21;11.98;;;2.25;;
19026;SDS011;9646;52.034;5.554;2022-10-16T14:33:50;9.60;;;1.90;;
19026;SDS011;9646;52.034;5.554;2022-10-16T14:36:17;8.27;;;2.05;;
19026;SDS011;9646;52.034;5.554;2022-10-16T14:38:48;8.88;;;2.28;;
19026;SDS011;9646;52.034;5.554;2022-10-16T14:41:19;10.82;;;2.40;;
19026;SDS011;9646;52.034;5.554;2022-10-16T14:43:49;10.77;;;1.95;;
19026;SDS011;9646;52.034;5.554;2022-10-16T14:46:17;14.70;;;2.38;;
19026;SDS011;9646;52.034;5.554;2022-10-16T14:48:45;8.60;;;1.92;;
19026;SDS011;9646;52.034;5.554;2022-10-16T14:51:13;12.52;;;2.22;;
19026;SDS011;9646;52.034;5.554;2022-10-16T14:53:41;8.82;;;2.42;;
19026;SDS011;9646;52.034;5.554;2022-10-16T14:56:08;6.28;;;1.50;;
19026;SDS011;9646;52.034;5.554;2022-10-16T14:58:37;5.68;;;1.58;;
19026;SDS011;9646;52.034;5.554;2022-10-16T15:01:04;9.73;;;4.40;;
19026;SDS011;9646;52.034;5.554;2022-10-16T15:03:33;11.15;;;4.70;;
19026;SDS011;9646;52.034;5.554;2022-10-16T15:06:00;15.02;;;4.05;;
19026;SDS011;9646;52.034;5.554;2022-10-16T15:08:27;10.27;;;2.15;;
19026;SDS011;9646;52.034;5.554;2022-10-16T15:10:54;11.57;;;2.42;;
19026;SDS011;9646;52.034;5.554;2022-10-16T15:13:21;9.02;;;2.03;;
19026;SDS011;9646;52.034;5.554;2022-10-16T15:15:50;9.20;;;2.20;;